Time;durP1;ratioP1;P1;durP2;ratioP2;P2;SDS_P1;SDS_P2;PMS_P1;PMS_P2;Temp;Humidity;BMP_temperature;BMP_pressure;BME280_temperature;BME280_humidity;BME280_pressure;Samples;Min_cycle;Max_cycle;Signal;HPM_P1;HPM_P2
2024/01/26 00:02:04;;;;;;;56.15;29.98;;;;;;;;;;4987416;28;20038;-78
2024/01/26 00:04:30;;;;;;;56.25;30.75;;;;;;;;;;4988204;28;20042;-78
2024/01/26 00:06:56;;;;;;;55.42;30.88;;;;;;;;;;5011387;28;20534;-78
2024/01/26 00:09:23;;;;;;;53.28;30.98;;;;;;;;;;4991244;28;20049;-77
2024/01/26 00:11:49;;;;;;;52.40;30.92;;;;;;;;;;5009278;28;20018;-77
2024/01/26 00:14:16;;;;;;;48.17;28.00;;;;;;;;;;4988756;28;20035;-80
2024/01/26 00:16:42;;;;;;;44.22;27.23;;;;;;;;;;5011296;28;20046;-78
2024/01/26 00:19:08;;;;;;;41.50;25.77;;;;;;;;;;5005558;28;20105;-77
2024/01/26 00:21:34;;;;;;;45.92;26.50;;;;;;;;;;4984215;28;20448;-77
2024/01/26 00:24:01;;;;;;;42.25;25.13;;;;;;;;;;4983037;28;20126;-77
2024/01/26 00:26:27;;;;;;;44.30;25.52;;;;;;;;;;4986034;28;20042;-77
2024/01/26 00:28:53;;;;;;;42.28;24.20;;;;;;;;;;5013032;28;20133;-78
2024/01/26 00:31:19;;;;;;;37.60;23.60;;;;;;;;;;5007711;28;20035;-76
2024/01/26 00:33:46;;;;;;;33.10;22.17;;;;;;;;;;4982114;28;20046;-78
2024/01/26 00:36:13;;;;;;;34.67;21.85;;;;;;;;;;4983723;28;20137;-80
2024/01/26 00:38:39;;;;;;;32.53;21.65;;;;;;;;;;4986364;28;20073;-78
2024/01/26 00:41:06;;;;;;;31.35;21.60;;;;;;;;;;4986264;28;20085;-80
2024/01/26 00:43:32;;;;;;;31.33;21.40;;;;;;;;;;4986596;28;20496;-76
2024/01/26 00:45:58;;;;;;;32.08;20.98;;;;;;;;;;4984610;28;20264;-77
2024/01/26 00:48:24;;;;;;;27.92;19.65;;;;;;;;;;4988082;28;20056;-78
2024/01/26 00:50:51;;;;;;;30.75;19.05;;;;;;;;;;4989089;28;20031;-77
2024/01/26 00:53:20;;;;;;;27.73;20.42;;;;;;;;;;4984025;28;20030;-77
2024/01/26 00:55:46;;;;;;;30.77;20.15;;;;;;;;;;4988059;28;20500;-77
2024/01/26 00:58:12;;;;;;;28.33;19.45;;;;;;;;;;4986601;28;20397;-80
2024/01/26 01:00:38;;;;;;;29.67;19.90;;;;;;;;;;4986930;28;20037;-75
2024/01/26 01:03:05;;;;;;;27.35;19.30;;;;;;;;;;4987118;28;20034;-77
2024/01/26 01:05:31;;;;;;;28.00;19.45;;;;;;;;;;4985426;28;20046;-79
2024/01/26 01:07:57;;;;;;;27.65;18.70;;;;;;;;;;5008911;28;20019;-77
2024/01/26 01:10:24;;;;;;;26.40;18.40;;;;;;;;;;4990119;28;20122;-77
2024/01/26 01:12:50;;;;;;;25.63;17.25;;;;;;;;;;4988245;28;20134;-77
2024/01/26 01:15:17;;;;;;;26.10;18.02;;;;;;;;;;4986739;28;20041;-78
2024/01/26 01:17:44;;;;;;;26.90;18.98;;;;;;;;;;4985254;28;20034;-78
2024/01/26 01:20:10;;;;;;;27.27;17.42;;;;;;;;;;4983866;28;20045;-77
2024/01/26 01:22:37;;;;;;;29.02;18.55;;;;;;;;;;4986278;28;20015;-79
2024/01/26 01:25:04;;;;;;;29.63;19.05;;;;;;;;;;4988686;28;20023;-77
2024/01/26 01:27:32;;;;;;;29.50;18.95;;;;;;;;;;4988583;28;20495;-77
2024/01/26 01:29:58;;;;;;;26.52;18.35;;;;;;;;;;4986736;28;20124;-77
2024/01/26 01:32:24;;;;;;;30.90;19.00;;;;;;;;;;4991833;28;20044;-77
2024/01/26 01:34:50;;;;;;;28.48;18.52;;;;;;;;;;5015555;28;20051;-78
2024/01/26 01:37:16;;;;;;;30.95;19.55;;;;;;;;;;4989272;28;20037;-76
2024/01/26 01:39:42;;;;;;;31.23;19.65;;;;;;;;;;4993925;28;20089;-76
2024/01/26 01:42:13;;;;;;;32.15;19.67;;;;;;;;;;4986073;28;20089;-79
2024/01/26 01:44:40;;;;;;;;;;;;;;;;;;4990995;28;20022;-77
2024/01/26 01:47:06;;;;;;;30.38;18.67;;;;;;;;;;4984229;28;19911;-79
2024/01/26 01:49:32;;;;;;;31.08;18.42;;;;;;;;;;4988160;28;20035;-77
2024/01/26 01:52:01;;;;;;;25.23;17.08;;;;;;;;;;5017099;28;20151;-78
2024/01/26 01:54:27;;;;;;;31.30;17.80;;;;;;;;;;5009041;28;20041;-75
2024/01/26 01:56:54;;;;;;;24.58;16.55;;;;;;;;;;4985184;28;20042;-77
2024/01/26 01:59:21;;;;;;;26.30;18.20;;;;;;;;;;4992625;28;20034;-76
2024/01/26 02:01:47;;;;;;;24.00;16.80;;;;;;;;;;4995277;28;20181;-77
2024/01/26 02:04:13;;;;;;;25.42;16.35;;;;;;;;;;5016199;28;20123;-78
2024/01/26 02:06:40;;;;;;;26.42;16.23;;;;;;;;;;4988274;28;20033;-77
2024/01/26 02:09:06;;;;;;;24.35;15.80;;;;;;;;;;4984219;28;20077;-77
2024/01/26 02:11:32;;;;;;;24.50;15.65;;;;;;;;;;4981757;28;20038;-76
2024/01/26 02:13:59;;;;;;;23.58;16.05;;;;;;;;;;4990311;28;20049;-77
2024/01/26 02:16:25;;;;;;;21.67;14.73;;;;;;;;;;4986949;28;20118;-76
2024/01/26 02:18:51;;;;;;;22.45;15.15;;;;;;;;;;4987124;28;20038;-77
2024/01/26 02:21:18;;;;;;;21.88;14.07;;;;;;;;;;4985140;28;20030;-77
2024/01/26 02:23:44;;;;;;;19.73;14.40;;;;;;;;;;5008987;28;20023;-76
2024/01/26 02:26:10;;;;;;;23.67;14.02;;;;;;;;;;4990781;28;20049;-77
2024/01/26 02:28:37;;;;;;;21.55;13.70;;;;;;;;;;4991663;28;20026;-78
2024/01/26 02:31:03;;;;;;;21.15;13.13;;;;;;;;;;4989280;28;20480;-76
2024/01/26 02:33:29;;;;;;;22.73;13.93;;;;;;;;;;4990570;28;20050;-77
2024/01/26 02:35:55;;;;;;;22.52;13.25;;;;;;;;;;4997502;28;20129;-77
2024/01/26 02:38:21;;;;;;;24.05;15.05;;;;;;;;;;4987135;28;20045;-77
2024/01/26 02:40:47;;;;;;;24.10;14.32;;;;;;;;;;4986510;28;20038;-77
2024/01/26 02:43:14;;;;;;;21.48;13.95;;;;;;;;;;4988482;28;20164;-77
2024/01/26 02:45:46;;;;;;;25.70;15.43;;;;;;;;;;4986833;28;20443;-76
2024/01/26 02:48:12;;;;;;;22.83;14.75;;;;;;;;;;4990061;28;20030;-77
2024/01/26 02:50:38;;;;;;;19.83;14.88;;;;;;;;;;4985735;28;20479;-78
2024/01/26 02:53:04;;;;;;;21.50;14.55;;;;;;;;;;4989275;28;20078;-76
2024/01/26 02:55:31;;;;;;;22.88;16.58;;;;;;;;;;4987546;28;20376;-78
2024/01/26 02:57:57;;;;;;;21.38;15.80;;;;;;;;;;4989905;28;20030;-77
2024/01/26 03:00:23;;;;;;;26.95;15.68;;;;;;;;;;4984696;28;20044;-77
2024/01/26 03:02:49;;;;;;;21.90;15.90;;;;;;;;;;4983652;28;20558;-78
2024/01/26 03:05:15;;;;;;;24.05;16.67;;;;;;;;;;5008154;28;20038;-75
2024/01/26 03:07:42;;;;;;;23.40;15.85;;;;;;;;;;4984983;28;20031;-78
2024/01/26 03:10:08;;;;;;;25.02;16.52;;;;;;;;;;4989971;28;20030;-78
2024/01/26 03:12:34;;;;;;;28.52;17.63;;;;;;;;;;5008495;28;20336;-77
2024/01/26 03:15:01;;;;;;;36.65;17.98;;;;;;;;;;4993473;28;20046;-78
2024/01/26 03:17:27;;;;;;;25.40;17.92;;;;;;;;;;4988769;28;20034;-78
2024/01/26 03:19:53;;;;;;;28.25;18.50;;;;;;;;;;4988954;28;20159;-78
2024/01/26 03:22:19;;;;;;;26.92;17.88;;;;;;;;;;4979955;28;20129;-77
2024/01/26 03:24:45;;;;;;;26.52;19.08;;;;;;;;;;4968619;28;20031;-78
2024/01/26 03:27:13;;;;;;;26.50;18.95;;;;;;;;;;5010636;28;20035;-77
2024/01/26 03:29:39;;;;;;;28.13;19.13;;;;;;;;;;5017077;28;20035;-76
2024/01/26 03:32:06;;;;;;;26.55;19.48;;;;;;;;;;4985884;28;20038;-77
2024/01/26 03:34:32;;;;;;;27.58;18.92;;;;;;;;;;4984867;28;20495;-77
2024/01/26 03:36:58;;;;;;;30.35;20.85;;;;;;;;;;4985818;28;20443;-77
2024/01/26 03:39:24;;;;;;;28.13;19.75;;;;;;;;;;4986145;28;20341;-80
2024/01/26 03:41:50;;;;;;;27.15;19.45;;;;;;;;;;5013434;28;20475;-77
2024/01/26 03:44:17;;;;;;;25.45;20.27;;;;;;;;;;4992369;28;20050;-79
2024/01/26 03:46:43;;;;;;;33.10;20.38;;;;;;;;;;5000582;28;20310;-78
2024/01/26 03:49:09;;;;;;;27.73;19.60;;;;;;;;;;4988409;28;20030;-77
2024/01/26 03:51:39;;;;;;;27.35;19.83;;;;;;;;;;4988426;28;20026;-77
2024/01/26 03:54:05;;;;;;;27.52;20.70;;;;;;;;;;4986117;28;20045;-77
2024/01/26 03:56:31;;;;;;;30.13;21.80;;;;;;;;;;4986239;28;20050;-77
2024/01/26 03:58:57;;;;;;;29.50;21.17;;;;;;;;;;5010553;28;20035;-77
2024/01/26 04:01:23;;;;;;;31.00;22.02;;;;;;;;;;4987175;28;20053;-78
2024/01/26 04:03:49;;;;;;;30.73;21.73;;;;;;;;;;4988231;28;20035;-79
2024/01/26 04:06:15;;;;;;;30.95;22.70;;;;;;;;;;4985358;28;20039;-77
2024/01/26 04:08:42;;;;;;;34.58;21.92;;;;;;;;;;4987089;28;20048;-77
2024/01/26 04:11:08;;;;;;;30.75;22.35;;;;;;;;;;4986953;28;20399;-76
2024/01/26 04:13:34;;;;;;;33.60;23.60;;;;;;;;;;4986835;28;20038;-77
2024/01/26 04:16:00;;;;;;;38.50;23.50;;;;;;;;;;5015208;28;20030;-79
2024/01/26 04:18:26;;;;;;;33.72;23.30;;;;;;;;;;4984533;28;20117;-79
2024/01/26 04:20:53;;;;;;;32.78;22.45;;;;;;;;;;5011138;28;20026;-78
2024/01/26 04:23:19;;;;;;;32.00;23.35;;;;;;;;;;5010281;28;20054;-78
2024/01/26 04:25:46;;;;;;;32.83;23.83;;;;;;;;;;5015191;28;20108;-76
2024/01/26 04:28:12;;;;;;;32.20;23.42;;;;;;;;;;4984332;28;20066;-77
2024/01/26 04:30:41;;;;;;;32.15;23.63;;;;;;;;;;5010861;28;20027;-77
2024/01/26 04:33:08;;;;;;;35.10;24.48;;;;;;;;;;4995760;28;20034;-77
2024/01/26 04:35:34;;;;;;;38.03;24.05;;;;;;;;;;4982973;28;20042;-76
2024/01/26 04:38:00;;;;;;;38.97;25.63;;;;;;;;;;5005248;28;20027;-78
2024/01/26 04:40:26;;;;;;;33.50;25.65;;;;;;;;;;5015655;28;20041;-76
2024/01/26 04:42:54;;;;;;;38.25;25.02;;;;;;;;;;4991754;28;20050;-77
2024/01/26 04:45:20;;;;;;;38.53;25.98;;;;;;;;;;4987814;28;20039;-78
2024/01/26 04:47:46;;;;;;;37.85;26.42;;;;;;;;;;4994231;28;20386;-76
2024/01/26 04:50:12;;;;;;;42.80;27.70;;;;;;;;;;4993300;28;20149;-77
2024/01/26 04:52:38;;;;;;;39.05;25.85;;;;;;;;;;4984394;28;20034;-77
2024/01/26 04:55:04;;;;;;;39.88;27.65;;;;;;;;;;4980684;28;20566;-78
2024/01/26 04:57:31;;;;;;;38.38;27.02;;;;;;;;;;4982153;28;20031;-78
2024/01/26 04:59:57;;;;;;;43.13;27.13;;;;;;;;;;4986175;28;21004;-78
2024/01/26 05:02:23;;;;;;;44.17;28.42;;;;;;;;;;4983265;28;20053;-78
2024/01/26 05:04:49;;;;;;;42.80;27.80;;;;;;;;;;5012907;28;20062;-80
2024/01/26 05:07:16;;;;;;;42.15;27.13;;;;;;;;;;4985682;28;20388;-77
2024/01/26 05:09:42;;;;;;;45.80;29.08;;;;;;;;;;5012328;28;20035;-78
2024/01/26 05:12:08;;;;;;;45.35;28.70;;;;;;;;;;4982564;28;20160;-76
2024/01/26 05:14:37;;;;;;;44.75;30.02;;;;;;;;;;5007203;28;20053;-79
2024/01/26 05:17:04;;;;;;;40.03;28.33;;;;;;;;;;4985411;28;20105;-79
2024/01/26 05:19:30;;;;;;;45.08;29.15;;;;;;;;;;4982394;28;20076;-78
2024/01/26 05:21:56;;;;;;;44.92;29.52;;;;;;;;;;4984731;28;20071;-80
2024/01/26 05:24:23;;;;;;;47.50;29.67;;;;;;;;;;4988615;28;20076;-77
2024/01/26 05:26:49;;;;;;;44.17;30.63;;;;;;;;;;5009610;28;20072;-78
2024/01/26 05:29:16;;;;;;;52.85;31.23;;;;;;;;;;4985058;28;20055;-78
2024/01/26 05:31:42;;;;;;;45.33;31.38;;;;;;;;;;4983564;28;20436;-77
2024/01/26 05:34:09;;;;;;;49.30;30.45;;;;;;;;;;4988856;28;20062;-77
2024/01/26 05:36:44;;;;;;;48.72;31.75;;;;;;;;;;4986734;28;20034;-78
2024/01/26 05:39:10;;;;;;;52.33;31.52;;;;;;;;;;4988660;28;20496;-78
2024/01/26 05:41:36;;;;;;;50.42;32.25;;;;;;;;;;4986446;28;20030;-77
2024/01/26 05:44:03;;;;;;;52.13;32.40;;;;;;;;;;4990950;28;20027;-77
2024/01/26 05:46:29;;;;;;;49.92;32.50;;;;;;;;;;5010358;28;20030;-77
2024/01/26 05:48:56;;;;;;;51.00;31.65;;;;;;;;;;4991531;28;20104;-80
2024/01/26 05:51:22;;;;;;;48.70;30.75;;;;;;;;;;4988011;28;20041;-79
2024/01/26 05:53:49;;;;;;;47.92;29.67;;;;;;;;;;4990861;28;20090;-78
2024/01/26 05:56:16;;;;;;;50.53;31.48;;;;;;;;;;4990409;28;20022;-78
2024/01/26 05:58:42;;;;;;;47.05;30.67;;;;;;;;;;4991926;28;20038;-79
2024/01/26 06:01:08;;;;;;;43.47;29.55;;;;;;;;;;4996894;28;20113;-79
2024/01/26 06:03:34;;;;;;;45.05;28.00;;;;;;;;;;4990324;28;20073;-78
2024/01/26 06:06:01;;;;;;;43.95;29.27;;;;;;;;;;5011073;28;20042;-78
2024/01/26 06:08:27;;;;;;;47.28;30.15;;;;;;;;;;4990948;28;20555;-80
2024/01/26 06:10:55;;;;;;;40.53;26.98;;;;;;;;;;4987278;28;20129;-79
2024/01/26 06:13:22;;;;;;;42.13;28.25;;;;;;;;;;4989334;28;20472;-77
2024/01/26 06:15:48;;;;;;;42.42;26.60;;;;;;;;;;5014344;28;20034;-77
2024/01/26 06:18:14;;;;;;;40.05;25.95;;;;;;;;;;4990394;28;20273;-78
2024/01/26 06:20:41;;;;;;;41.08;28.02;;;;;;;;;;5014615;28;20035;-77
2024/01/26 06:23:07;;;;;;;37.58;25.60;;;;;;;;;;4988651;28;20049;-79
2024/01/26 06:25:34;;;;;;;43.33;27.58;;;;;;;;;;4986917;28;20043;-79
2024/01/26 06:28:01;;;;;;;40.80;26.40;;;;;;;;;;4998941;28;20066;-79
2024/01/26 06:30:27;;;;;;;40.65;26.98;;;;;;;;;;4989044;28;20053;-80
2024/01/26 06:32:53;;;;;;;45.90;27.58;;;;;;;;;;4986377;28;20038;-78
2024/01/26 06:35:19;;;;;;;41.78;28.17;;;;;;;;;;4987226;28;20054;-78
2024/01/26 06:37:45;;;;;;;42.85;27.83;;;;;;;;;;4988766;28;20037;-78
2024/01/26 06:40:12;;;;;;;44.45;27.40;;;;;;;;;;4971521;28;20100;-78
2024/01/26 06:42:39;;;;;;;38.25;26.92;;;;;;;;;;5006786;28;20015;-78
2024/01/26 06:45:06;;;;;;;43.55;28.08;;;;;;;;;;5008981;28;20027;-78
2024/01/26 06:47:33;;;;;;;42.13;27.80;;;;;;;;;;4984339;28;20026;-78
2024/01/26 06:49:59;;;;;;;35.80;25.73;;;;;;;;;;4983053;28;20043;-77
2024/01/26 06:52:26;;;;;;;37.92;26.15;;;;;;;;;;4982047;28;20129;-77
2024/01/26 06:54:54;;;;;;;39.05;25.40;;;;;;;;;;4988523;28;20546;-77
2024/01/26 06:57:21;;;;;;;35.00;24.27;;;;;;;;;;4986791;28;20367;-77
2024/01/26 06:59:47;;;;;;;36.42;24.90;;;;;;;;;;4986504;28;20100;-77
2024/01/26 07:02:13;;;;;;;37.00;23.67;;;;;;;;;;4984824;28;20034;-79
2024/01/26 07:04:39;;;;;;;33.47;23.60;;;;;;;;;;4990836;28;20423;-77
2024/01/26 07:07:05;;;;;;;31.42;23.27;;;;;;;;;;4985187;28;20052;-78
2024/01/26 07:09:32;;;;;;;33.38;21.77;;;;;;;;;;4984900;28;20502;-78
2024/01/26 07:11:58;;;;;;;30.85;21.73;;;;;;;;;;5017941;28;20093;-78
2024/01/26 07:14:24;;;;;;;32.25;22.52;;;;;;;;;;4990414;28;20113;-78
2024/01/26 07:16:51;;;;;;;30.13;21.48;;;;;;;;;;4985911;28;20033;-79
2024/01/26 07:19:17;;;;;;;28.92;20.27;;;;;;;;;;4985916;28;20093;-80
2024/01/26 07:21:43;;;;;;;34.00;23.73;;;;;;;;;;4979841;28;20053;-77
2024/01/26 07:24:09;;;;;;;31.00;21.25;;;;;;;;;;4988340;28;20076;-77
2024/01/26 07:26:37;;;;;;;33.25;22.17;;;;;;;;;;4995154;28;20022;-80
2024/01/26 07:29:03;;;;;;;31.25;21.75;;;;;;;;;;5009589;28;20388;-78
2024/01/26 07:31:29;;;;;;;34.35;22.65;;;;;;;;;;4982171;28;20191;-76
2024/01/26 07:33:56;;;;;;;31.85;22.52;;;;;;;;;;4988887;28;20073;-78
2024/01/26 07:36:22;;;;;;;32.83;23.30;;;;;;;;;;5010511;28;20035;-76
2024/01/26 07:38:48;;;;;;;30.75;22.17;;;;;;;;;;4992594;28;20141;-77
2024/01/26 07:41:14;;;;;;;33.15;23.60;;;;;;;;;;5003705;28;20031;-78
2024/01/26 07:43:40;;;;;;;33.28;23.95;;;;;;;;;;5006562;28;20034;-79
2024/01/26 07:46:07;;;;;;;36.83;22.98;;;;;;;;;;4979580;28;20040;-78
2024/01/26 07:48:33;;;;;;;34.47;23.35;;;;;;;;;;4998797;28;20042;-77
2024/01/26 07:50:59;;;;;;;34.97;24.45;;;;;;;;;;4990633;28;20037;-78
2024/01/26 07:53:25;;;;;;;34.95;23.77;;;;;;;;;;5008513;28;20090;-77
2024/01/26 07:55:51;;;;;;;35.83;23.92;;;;;;;;;;4969721;28;20141;-77
2024/01/26 07:58:17;;;;;;;35.58;25.48;;;;;;;;;;5013783;28;20031;-76
2024/01/26 08:00:44;;;;;;;38.67;26.25;;;;;;;;;;5003784;28;20098;-77
2024/01/26 08:03:11;;;;;;;35.80;23.52;;;;;;;;;;4986680;28;20160;-77
2024/01/26 08:05:37;;;;;;;45.38;27.10;;;;;;;;;;4981923;28;20038;-77
2024/01/26 08:08:03;;;;;;;38.22;25.10;;;;;;;;;;4969718;28;20674;-76
2024/01/26 08:10:29;;;;;;;35.97;23.63;;;;;;;;;;4975631;28;20038;-77
2024/01/26 08:12:56;;;;;;;35.60;24.95;;;;;;;;;;4977184;28;20030;-76
2024/01/26 08:15:22;;;;;;;30.40;22.48;;;;;;;;;;4979191;28;20039;-75
2024/01/26 08:17:48;;;;;;;34.78;19.02;;;;;;;;;;4985188;28;20045;-77
2024/01/26 08:20:15;;;;;;;29.98;17.80;;;;;;;;;;4978587;28;20456;-77
2024/01/26 08:22:43;;;;;;;31.13;17.67;;;;;;;;;;4982533;28;20027;-77
2024/01/26 08:25:10;;;;;;;34.78;17.30;;;;;;;;;;5012955;28;20035;-78
2024/01/26 08:27:36;;;;;;;30.38;15.80;;;;;;;;;;5011086;28;20042;-78
2024/01/26 08:30:03;;;;;;;23.42;12.13;;;;;;;;;;4985511;28;20399;-77
2024/01/26 08:32:30;;;;;;;21.73;10.50;;;;;;;;;;4981384;28;20402;-78
2024/01/26 08:34:56;;;;;;;19.92;8.30;;;;;;;;;;4972644;28;20051;-77
2024/01/26 08:37:23;;;;;;;21.20;8.02;;;;;;;;;;4981395;28;20065;-78
2024/01/26 08:39:49;;;;;;;18.38;8.07;;;;;;;;;;4988805;28;20152;-77
2024/01/26 08:42:17;;;;;;;21.40;7.30;;;;;;;;;;4977527;28;20455;-78
2024/01/26 08:44:43;;;;;;;19.45;7.10;;;;;;;;;;5007543;28;20045;-78
2024/01/26 08:47:09;;;;;;;22.13;6.13;;;;;;;;;;5009080;28;20476;-78
2024/01/26 08:49:35;;;;;;;23.00;5.25;;;;;;;;;;4995809;28;20166;-78
2024/01/26 08:52:01;;;;;;;20.50;4.93;;;;;;;;;;4977441;28;20038;-77
2024/01/26 08:54:28;;;;;;;23.25;5.20;;;;;;;;;;4989610;28;20030;-78
2024/01/26 08:56:54;;;;;;;18.92;5.95;;;;;;;;;;4983912;28;20050;-78
2024/01/26 08:59:20;;;;;;;25.33;5.57;;;;;;;;;;4985197;28;20066;-80
2024/01/26 09:01:46;;;;;;;19.60;4.32;;;;;;;;;;4986452;28;20030;-78
2024/01/26 09:04:13;;;;;;;21.67;4.00;;;;;;;;;;4983848;28;20096;-77
2024/01/26 09:06:39;;;;;;;32.70;5.80;;;;;;;;;;4979391;28;20480;-79
2024/01/26 09:09:06;;;;;;;29.92;4.85;;;;;;;;;;4977139;28;20030;-77
2024/01/26 09:11:32;;;;;;;29.70;4.65;;;;;;;;;;5009680;28;20185;-78
2024/01/26 09:13:59;;;;;;;26.10;5.25;;;;;;;;;;4980497;28;20031;-79
2024/01/26 09:16:25;;;;;;;21.98;3.40;;;;;;;;;;4981956;28;20054;-80
2024/01/26 09:18:51;;;;;;;12.40;2.20;;;;;;;;;;4977958;28;20102;-77
2024/01/26 09:21:18;;;;;;;13.32;2.30;;;;;;;;;;4979676;28;20031;-78
2024/01/26 09:23:44;;;;;;;15.93;2.03;;;;;;;;;;4980847;28;20022;-77
2024/01/26 09:26:11;;;;;;;16.33;3.05;;;;;;;;;;4981511;28;20026;-79
2024/01/26 09:28:37;;;;;;;14.75;2.40;;;;;;;;;;4984959;28;20136;-77
2024/01/26 09:31:04;;;;;;;15.73;2.88;;;;;;;;;;4981784;28;20081;-77
2024/01/26 09:33:31;;;;;;;14.07;2.05;;;;;;;;;;4997767;28;20134;-78
2024/01/26 09:35:57;;;;;;;10.65;1.80;;;;;;;;;;4982360;28;20130;-77
2024/01/26 09:38:24;;;;;;;14.18;2.80;;;;;;;;;;4966185;28;20051;-76
2024/01/26 09:40:50;;;;;;;19.60;1.95;;;;;;;;;;4980953;28;20038;-75
2024/01/26 09:43:16;;;;;;;15.23;1.90;;;;;;;;;;4981320;28;20782;-77
2024/01/26 09:45:43;;;;;;;14.00;2.95;;;;;;;;;;4981258;28;20030;-77
2024/01/26 09:48:10;;;;;;;19.27;2.50;;;;;;;;;;4979452;28;20026;-78
2024/01/26 09:50:36;;;;;;;22.15;3.25;;;;;;;;;;4979613;28;20407;-77
2024/01/26 09:53:03;;;;;;;15.48;2.78;;;;;;;;;;4976445;28;20530;-77
2024/01/26 09:55:32;;;;;;;19.25;2.45;;;;;;;;;;4983282;28;20050;-76
2024/01/26 09:57:59;;;;;;;16.85;3.28;;;;;;;;;;4979877;28;20034;-77
2024/01/26 10:00:25;;;;;;;20.08;3.20;;;;;;;;;;4980316;28;20054;-77
2024/01/26 10:02:51;;;;;;;20.27;2.78;;;;;;;;;;4984269;28;20149;-77
2024/01/26 10:05:18;;;;;;;21.48;3.25;;;;;;;;;;4982888;28;20026;-77
2024/01/26 10:07:45;;;;;;;15.98;2.35;;;;;;;;;;4982160;28;20026;-77
2024/01/26 10:10:12;;;;;;;19.35;4.45;;;;;;;;;;4978310;28;20052;-76
2024/01/26 10:12:38;;;;;;;17.00;3.20;;;;;;;;;;4985419;28;20154;-78
2024/01/26 10:15:09;;;;;;;19.77;3.70;;;;;;;;;;4984697;28;20045;-77
2024/01/26 10:17:35;;;;;;;20.77;2.97;;;;;;;;;;4981658;28;20034;-80
2024/01/26 10:20:18;;;;;;;24.23;2.83;;;;;;;;;;4983172;28;20039;-78
2024/01/26 10:22:44;;;;;;;15.75;2.53;;;;;;;;;;4984159;28;20596;-77
2024/01/26 10:25:11;;;;;;;19.50;4.03;;;;;;;;;;4983452;28;20030;-76
2024/01/26 10:27:38;;;;;;;21.40;2.97;;;;;;;;;;4985019;28;20030;-76
2024/01/26 10:30:04;;;;;;;12.70;2.28;;;;;;;;;;4986425;28;20045;-77
2024/01/26 10:32:32;;;;;;;13.45;2.50;;;;;;;;;;4981002;28;20455;-77
2024/01/26 10:35:02;;;;;;;20.60;3.35;;;;;;;;;;4985155;28;20066;-79
2024/01/26 10:37:30;;;;;;;21.38;2.70;;;;;;;;;;4983967;28;20536;-76
2024/01/26 10:39:56;;;;;;;18.20;2.63;;;;;;;;;;4983930;28;20035;-76
2024/01/26 10:42:26;;;;;;;20.77;2.28;;;;;;;;;;4992830;28;20115;-75
2024/01/26 10:44:53;;;;;;;18.38;3.33;;;;;;;;;;4991498;28;20540;-77
2024/01/26 10:47:20;;;;;;;17.60;2.75;;;;;;;;;;4987446;28;20037;-76
2024/01/26 10:49:49;;;;;;;19.98;2.78;;;;;;;;;;4984133;28;20042;-77
2024/01/26 10:52:20;;;;;;;;;;;;;;;;;;4983816;28;20046;-76
2024/01/26 10:54:49;;;;;;;17.73;3.45;;;;;;;;;;4981648;28;19917;-77
2024/01/26 10:57:16;;;;;;;17.45;3.28;;;;;;;;;;4985387;28;20053;-78
2024/01/26 10:59:43;;;;;;;21.63;3.17;;;;;;;;;;4982479;28;20038;-78
2024/01/26 11:02:13;;;;;;;18.58;3.05;;;;;;;;;;4985413;28;20022;-78
2024/01/26 11:04:42;;;;;;;23.35;3.05;;;;;;;;;;4984258;28;20394;-76
2024/01/26 11:07:09;;;;;;;15.75;3.05;;;;;;;;;;4984705;28;20038;-80
2024/01/26 11:09:38;;;;;;;13.90;2.72;;;;;;;;;;4985796;28;20034;-77
2024/01/26 11:12:08;;;;;;;17.33;3.80;;;;;;;;;;4983469;28;20038;-75
2024/01/26 11:14:34;;;;;;;21.23;3.38;;;;;;;;;;4985135;28;20069;-76
2024/01/26 11:17:10;;;;;;;17.83;3.75;;;;;;;;;;4981551;28;20030;-77
2024/01/26 11:19:37;;;;;;;15.38;2.90;;;;;;;;;;4984168;28;20038;-78
2024/01/26 11:22:04;;;;;;;17.35;3.15;;;;;;;;;;4987899;28;20045;-78
2024/01/26 11:24:32;;;;;;;22.30;3.38;;;;;;;;;;4989196;28;20022;-78
2024/01/26 11:26:59;;;;;;;19.13;4.03;;;;;;;;;;4985950;28;20023;-76
2024/01/26 11:29:32;;;;;;;23.38;3.67;;;;;;;;;;4983240;28;20117;-75
2024/01/26 11:31:59;;;;;;;25.02;4.60;;;;;;;;;;4982538;28;20041;-77
2024/01/26 11:34:26;;;;;;;20.42;3.50;;;;;;;;;;4983059;28;20054;-78
2024/01/26 11:37:11;;;;;;;26.08;3.42;;;;;;;;;;4965411;28;20905;-77
2024/01/26 11:39:38;;;;;;;24.15;3.50;;;;;;;;;;4983935;28;20026;-82
2024/01/26 11:42:09;;;;;;;29.30;4.20;;;;;;;;;;4982596;28;20099;-76
2024/01/26 11:44:39;;;;;;;25.17;3.53;;;;;;;;;;4987159;28;20029;-77
2024/01/26 11:47:06;;;;;;;26.05;5.20;;;;;;;;;;4985588;28;20503;-77
2024/01/26 11:49:33;;;;;;;34.17;4.55;;;;;;;;;;4985529;28;20096;-75
2024/01/26 11:51:59;;;;;;;21.02;3.92;;;;;;;;;;4983236;28;20059;-76
2024/01/26 11:54:25;;;;;;;29.92;3.83;;;;;;;;;;4982242;28;20108;-75
2024/01/26 11:56:51;;;;;;;24.02;4.13;;;;;;;;;;4983580;28;20046;-75
2024/01/26 11:59:17;;;;;;;16.98;3.05;;;;;;;;;;4983172;28;20039;-75
2024/01/26 12:01:43;;;;;;;15.85;3.05;;;;;;;;;;4982397;28;20042;-76
2024/01/26 12:04:10;;;;;;;22.20;4.15;;;;;;;;;;4981600;28;20026;-76
2024/01/26 12:06:36;;;;;;;27.85;3.85;;;;;;;;;;4982860;28;20035;-74
2024/01/26 12:09:02;;;;;;;24.20;3.67;;;;;;;;;;4984260;28;20034;-76
2024/01/26 12:11:28;;;;;;;34.25;6.15;;;;;;;;;;4982070;28;20438;-78
2024/01/26 12:13:55;;;;;;;19.38;3.55;;;;;;;;;;4979887;28;20483;-79
2024/01/26 12:16:22;;;;;;;22.35;3.50;;;;;;;;;;4983692;28;20046;-77
2024/01/26 12:18:48;;;;;;;19.20;3.60;;;;;;;;;;4986148;28;20051;-78
2024/01/26 12:21:15;;;;;;;20.02;3.60;;;;;;;;;;4984300;28;20088;-77
2024/01/26 12:23:41;;;;;;;19.17;3.60;;;;;;;;;;4981011;28;20038;-77
2024/01/26 12:26:09;;;;;;;16.77;2.85;;;;;;;;;;4981906;28;20061;-77
2024/01/26 12:28:35;;;;;;;25.48;3.38;;;;;;;;;;4980846;28;20417;-76
2024/01/26 12:31:01;;;;;;;15.80;3.38;;;;;;;;;;4982579;28;20567;-76
2024/01/26 12:33:28;;;;;;;20.30;3.80;;;;;;;;;;4980448;28;20046;-76
2024/01/26 12:35:54;;;;;;;22.40;4.07;;;;;;;;;;4982594;28;20089;-78
2024/01/26 12:38:21;;;;;;;29.35;4.00;;;;;;;;;;4982340;28;20661;-76
2024/01/26 12:40:47;;;;;;;19.15;3.53;;;;;;;;;;4982406;28;20045;-77
2024/01/26 12:43:14;;;;;;;20.45;3.97;;;;;;;;;;4982352;28;20031;-76
2024/01/26 12:45:40;;;;;;;22.90;3.72;;;;;;;;;;4980899;28;20035;-75
2024/01/26 12:48:06;;;;;;;24.42;3.58;;;;;;;;;;4986160;28;20037;-77
2024/01/26 12:50:32;;;;;;;20.33;4.85;;;;;;;;;;4981853;28;20250;-76
2024/01/26 12:52:59;;;;;;;19.42;3.60;;;;;;;;;;4981918;28;20042;-77
2024/01/26 12:55:26;;;;;;;26.05;3.90;;;;;;;;;;4984781;28;20071;-76
2024/01/26 12:57:52;;;;;;;22.45;4.93;;;;;;;;;;4985005;28;20034;-76
2024/01/26 13:00:19;;;;;;;27.73;3.28;;;;;;;;;;4983690;28;20042;-76
2024/01/26 13:02:46;;;;;;;23.27;3.85;;;;;;;;;;4982494;28;20073;-75
2024/01/26 13:05:12;;;;;;;25.65;4.00;;;;;;;;;;4982191;28;20080;-76
2024/01/26 13:07:38;;;;;;;24.05;3.50;;;;;;;;;;4964897;28;20023;-77
2024/01/26 13:10:05;;;;;;;20.08;3.67;;;;;;;;;;4983362;28;20555;-76
2024/01/26 13:12:31;;;;;;;25.83;5.13;;;;;;;;;;4981369;28;20070;-77
2024/01/26 13:14:57;;;;;;;26.02;4.93;;;;;;;;;;4983716;28;20037;-76
2024/01/26 13:17:25;;;;;;;28.92;3.60;;;;;;;;;;5011271;28;20467;-78
2024/01/26 13:19:51;;;;;;;23.70;4.85;;;;;;;;;;4981417;28;20042;-76
2024/01/26 13:22:20;;;;;;;31.92;4.10;;;;;;;;;;4979416;28;20056;-77
2024/01/26 13:24:47;;;;;;;30.90;3.70;;;;;;;;;;4983132;28;20036;-76
2024/01/26 13:27:15;;;;;;;24.40;3.50;;;;;;;;;;4982009;28;20065;-76
2024/01/26 13:29:43;;;;;;;22.20;3.15;;;;;;;;;;4982661;28;20488;-76
2024/01/26 13:32:09;;;;;;;29.17;4.10;;;;;;;;;;4982091;28;20132;-75
2024/01/26 13:34:36;;;;;;;30.75;4.13;;;;;;;;;;4981388;28;20069;-76
2024/01/26 13:37:03;;;;;;;28.42;3.72;;;;;;;;;;4982623;28;20586;-77
2024/01/26 13:39:29;;;;;;;21.05;3.65;;;;;;;;;;4982178;28;20117;-77
2024/01/26 13:41:55;;;;;;;26.27;4.40;;;;;;;;;;4980010;28;20037;-77
2024/01/26 13:44:21;;;;;;;22.38;4.15;;;;;;;;;;4982974;28;20056;-76
2024/01/26 13:46:47;;;;;;;21.77;3.72;;;;;;;;;;4981020;28;20039;-76
2024/01/26 13:49:13;;;;;;;21.45;4.28;;;;;;;;;;4966550;28;20282;-75
2024/01/26 13:51:39;;;;;;;27.60;3.80;;;;;;;;;;4984154;28;20048;-75
2024/01/26 13:54:06;;;;;;;34.38;4.55;;;;;;;;;;5005358;28;20126;-76
2024/01/26 13:56:32;;;;;;;21.30;3.53;;;;;;;;;;4990575;28;20049;-76
2024/01/26 13:58:58;;;;;;;20.00;3.85;;;;;;;;;;4985470;28;20046;-74
2024/01/26 14:01:25;;;;;;;26.27;3.97;;;;;;;;;;4987308;28;20026;-76
2024/01/26 14:03:53;;;;;;;26.23;3.53;;;;;;;;;;5014182;28;20170;-76
2024/01/26 14:06:19;;;;;;;25.15;4.55;;;;;;;;;;4987082;28;20058;-76
2024/01/26 14:08:45;;;;;;;20.27;3.42;;;;;;;;;;4985339;28;20153;-76
2024/01/26 14:11:12;;;;;;;23.40;4.13;;;;;;;;;;4986333;28;20034;-76
2024/01/26 14:13:38;;;;;;;24.63;4.28;;;;;;;;;;4986366;28;20046;-75
2024/01/26 14:16:07;;;;;;;26.30;4.43;;;;;;;;;;4985287;28;20034;-78
2024/01/26 14:18:36;;;;;;;20.60;3.63;;;;;;;;;;4987296;28;20030;-77
2024/01/26 14:21:02;;;;;;;29.38;4.30;;;;;;;;;;4982348;28;20031;-75